Time;durP1;ratioP1;P1;durP2;ratioP2;P2;SDS_P1;SDS_P2;PMS_P1;PMS_P2;Temp;Humidity;BMP_temperature;BMP_pressure;BME280_temperature;BME280_humidity;BME280_pressure;Samples;Min_cycle;Max_cycle;Signal;HPM_P1;HPM_P2
2022/10/20 00:02:13;;;;;;;13.57;8.43;;;;;;;-143.84;56.94;45092.88;5072841;28;20536;-77
2022/10/20 00:04:40;;;;;;;11.20;8.33;;;;;;;-143.84;57.25;45070.00;5073075;28;20991;-76
2022/10/20 00:07:07;;;;;;;7.83;6.73;;;;;;;-143.84;57.78;45094.78;5072944;28;20448;-77
2022/10/20 00:09:36;;;;;;;22.20;7.60;;;;;;;-143.84;57.96;45102.38;5081472;28;20501;-77
2022/10/20 00:12:03;;;;;;;13.80;8.57;;;;;;;-143.84;58.38;45096.66;5092763;28;20447;-76
2022/10/20 00:14:30;;;;;;;11.00;7.50;;;;;;;-143.84;59.13;45111.91;5074809;28;20436;-76
2022/10/20 00:17:00;;;;;;;14.60;7.80;;;;;;;-143.84;58.82;45106.19;5083590;28;20449;-76
2022/10/20 00:19:27;;;;;;;12.17;7.20;;;;;;;-143.84;58.47;45083.34;5072582;28;20472;-77
2022/10/20 00:21:54;;;;;;;18.50;7.37;;;;;;;-143.84;58.45;45083.34;5072483;28;20479;-76
2022/10/20 00:24:21;;;;;;;8.50;6.83;;;;;;;-143.84;58.30;45092.88;5072183;28;20448;-77
2022/10/20 00:26:50;;;;;;;13.37;7.83;;;;;;;-143.84;58.36;45085.25;5072400;28;20432;-76
2022/10/20 00:29:17;;;;;;;11.10;7.10;;;;;;;-143.84;57.93;45102.38;5072221;28;20502;-77
2022/10/20 00:31:44;;;;;;;12.03;6.83;;;;;;;-143.84;57.88;45052.88;5072434;28;20440;-77
2022/10/20 00:34:11;;;;;;;8.40;6.87;;;;;;;-143.84;58.86;45079.53;5072166;28;20889;-77
2022/10/20 00:36:39;;;;;;;10.70;7.20;;;;;;;-143.84;59.13;45062.41;5071994;28;20448;-76
2022/10/20 00:39:06;;;;;;;12.23;6.53;;;;;;;-143.84;59.75;45083.34;5071958;28;20471;-77
2022/10/20 00:41:34;;;;;;;21.20;7.50;;;;;;;-143.84;59.78;45085.25;5072098;28;21205;-77
2022/10/20 00:44:23;;;;;;;11.23;7.17;;;;;;;-143.84;59.51;45094.78;5071978;28;21316;-76
2022/10/20 00:46:50;;;;;;;9.90;5.90;;;;;;;-143.84;59.98;45077.63;5071934;28;20456;-76
2022/10/20 00:49:25;;;;;;;13.70;6.60;;;;;;;-143.84;60.28;45127.13;5071543;28;20486;-77
2022/10/20 00:51:53;;;;;;;10.07;6.90;;;;;;;-143.84;60.16;45089.06;5072008;28;20517;-77
2022/10/20 00:54:23;;;;;;;9.60;5.90;;;;;;;-143.84;59.28;45090.97;5071863;28;20510;-76
2022/10/20 00:56:52;;;;;;;14.67;6.60;;;;;;;-143.84;59.33;45098.56;5090873;28;20444;-77
2022/10/20 00:59:24;;;;;;;19.43;7.37;;;;;;;-143.84;59.07;45100.47;5092058;28;20476;-77
2022/10/20 01:01:51;;;;;;;8.00;6.67;;;;;;;-143.84;58.81;45071.91;5091997;28;20576;-76
2022/10/20 01:04:19;;;;;;;20.53;7.27;;;;;;;-143.84;58.97;45056.69;5092070;28;20872;-76
2022/10/20 01:06:46;;;;;;;12.63;6.17;;;;;;;-143.84;59.16;45087.16;5092087;28;20475;-77
2022/10/20 01:09:13;;;;;;;13.73;6.90;;;;;;;-143.84;59.51;45077.63;5091762;28;20480;-77
2022/10/20 01:11:49;;;;;;;17.20;6.60;;;;;;;-143.84;59.64;45100.47;5090948;28;20508;-77
2022/10/20 01:14:31;;;;;;;10.00;6.00;;;;;;;-143.84;59.75;45096.66;5091580;28;20437;-77
2022/10/20 01:17:07;;;;;;;10.73;6.43;;;;;;;-143.84;60.20;45106.19;5091409;28;20459;-76
2022/10/20 01:20:08;;;;;;;21.97;7.17;;;;;;;-143.84;60.43;45089.06;5091641;28;20976;-77
2022/10/20 01:23:07;;;;;;;15.03;7.47;;;;;;;-143.84;60.50;45094.78;5091331;28;21347;-77
2022/10/20 01:25:50;;;;;;;7.17;6.47;;;;;;;-143.84;60.13;45102.38;5091474;28;20505;-77
2022/10/20 01:28:23;;;;;;;11.77;6.30;;;;;;;-143.84;59.85;45085.25;5091137;28;20806;-77
2022/10/20 01:30:59;;;;;;;13.80;6.60;;;;;;;-143.84;59.39;45106.19;5091466;28;20468;-76
2022/10/20 01:33:36;;;;;;;10.20;6.73;;;;;;;-143.84;58.93;45089.06;5091139;28;20530;-77
2022/10/20 01:36:07;;;;;;;12.97;6.47;;;;;;;-143.84;58.47;45087.16;5090923;28;20480;-76
2022/10/20 01:38:40;;;;;;;12.47;6.63;;;;;;;-143.84;58.21;45094.78;5090815;28;20566;-77
2022/10/20 01:41:12;;;;;;;10.67;7.27;;;;;;;-143.84;57.31;45075.72;5090708;28;20956;-77
2022/10/20 01:43:43;;;;;;;9.20;7.33;;;;;;;-143.84;56.46;45079.53;5091168;28;20432;-77
2022/10/20 01:46:12;;;;;;;13.43;7.80;;;;;;;-143.84;55.90;45096.66;5089741;28;20967;-77
2022/10/20 01:48:40;;;;;;;16.37;8.97;;;;;;;-143.84;55.61;45071.91;5090000;28;20906;-77
2022/10/20 01:51:09;;;;;;;8.83;7.43;;;;;;;-143.84;56.15;45090.97;5091181;28;20470;-77
2022/10/20 01:53:36;;;;;;;10.60;7.87;;;;;;;-143.84;56.45;45085.25;5091234;28;20527;-77
2022/10/20 01:56:04;;;;;;;19.43;8.23;;;;;;;-143.84;56.54;45092.88;5090705;28;20503;-76
2022/10/20 01:58:57;;;;;;;9.33;8.03;;;;;;;-143.84;57.09;45102.38;5090600;28;21249;-77
2022/10/20 02:01:35;;;;;;;20.63;8.27;;;;;;;-143.84;57.80;45083.34;5090943;28;20440;-76
2022/10/20 02:04:04;;;;;;;14.53;7.10;;;;;;;-143.84;58.30;45083.34;5090692;28;20438;-76
2022/10/20 02:06:40;;;;;;;20.03;7.00;;;;;;;-143.84;58.73;45104.28;5091028;28;21097;-76
2022/10/20 02:09:13;;;;;;;7.60;6.37;;;;;;;-143.84;59.13;45090.97;5090659;28;20490;-77
2022/10/20 02:11:44;;;;;;;11.23;6.03;;;;;;;-143.84;59.46;45094.78;5090232;28;20587;-76
2022/10/20 02:14:16;;;;;;;9.33;5.90;;;;;;;-143.84;59.64;45094.78;5090553;28;20466;-77
2022/10/20 02:16:46;;;;;;;9.60;6.53;;;;;;;-143.84;59.90;45115.72;5090582;28;20459;-76
2022/10/20 02:19:17;;;;;;;7.33;5.33;;;;;;;-143.84;60.12;45104.28;5090423;28;20471;-77
2022/10/20 02:21:45;;;;;;;22.97;6.10;;;;;;;-143.84;60.54;45110.00;5090287;28;20501;-77
2022/10/20 02:24:16;;;;;;;8.67;5.40;;;;;;;-143.84;60.42;45089.06;5089367;28;20454;-77
2022/10/20 02:26:44;;;;;;;8.83;5.10;;;;;;;-143.84;60.70;45106.19;5090474;28;20497;-77
2022/10/20 02:29:15;;;;;;;5.23;4.33;;;;;;;-143.84;60.51;45140.47;5090409;28;20461;-77
2022/10/20 02:31:44;;;;;;;8.43;4.80;;;;;;;-143.84;60.68;45119.53;5090329;28;20513;-76
2022/10/20 02:34:12;;;;;;;8.30;4.90;;;;;;;-143.84;60.31;45113.81;5090353;28;21215;-77
2022/10/20 02:36:40;;;;;;;11.90;5.57;;;;;;;-143.84;60.27;45096.66;5090122;28;20435;-77
2022/10/20 02:39:08;;;;;;;8.40;4.97;;;;;;;-143.84;60.19;45077.63;5090144;28;20552;-76
2022/10/20 02:41:35;;;;;;;5.70;4.27;;;;;;;-143.84;60.41;45108.09;5090226;28;21001;-76
2022/10/20 02:44:03;;;;;;;6.63;5.40;;;;;;;-143.84;60.26;45079.53;5090302;28;20564;-76
2022/10/20 02:46:31;;;;;;;4.93;4.53;;;;;;;-143.84;60.26;45117.63;5090157;28;20433;-76
2022/10/20 02:48:58;;;;;;;5.97;5.00;;;;;;;-143.84;60.12;45083.34;5089935;28;21011;-76
2022/10/20 02:51:25;;;;;;;11.37;5.00;;;;;;;-143.84;59.75;45104.28;5090164;28;20461;-76
2022/10/20 02:53:53;;;;;;;5.20;4.70;;;;;;;-143.84;59.37;45098.56;5089823;28;20447;-76
2022/10/20 02:56:21;;;;;;;5.83;4.60;;;;;;;-143.84;59.39;45098.56;5089935;28;20509;-76
2022/10/20 02:58:48;;;;;;;4.70;4.30;;;;;;;-143.84;59.37;45079.53;5089958;28;20564;-76
2022/10/20 03:01:15;;;;;;;7.17;5.23;;;;;;;-143.84;59.59;45066.22;5090171;28;20501;-77
2022/10/20 03:03:44;;;;;;;8.07;4.67;;;;;;;-143.84;59.73;45113.81;5089991;28;20780;-77
2022/10/20 03:06:12;;;;;;;7.83;4.40;;;;;;;-143.84;59.82;45079.53;5089670;28;20447;-77
2022/10/20 03:08:40;;;;;;;5.67;4.80;;;;;;;-143.84;59.90;45121.44;5089056;28;20511;-77
2022/10/20 03:11:07;;;;;;;5.83;4.77;;;;;;;-143.84;59.54;45083.34;5082427;28;20512;-77
2022/10/20 03:13:34;;;;;;;21.87;6.13;;;;;;;-143.84;59.36;45121.44;5069268;28;20441;-77
2022/10/20 03:16:02;;;;;;;9.00;4.87;;;;;;;-143.84;59.51;45102.38;5069165;28;20870;-77
2022/10/20 03:18:29;;;;;;;5.13;3.87;;;;;;;-143.84;59.65;45077.63;5068998;28;20499;-77
2022/10/20 03:20:58;;;;;;;4.63;4.23;;;;;;;-143.84;59.67;45087.16;5069066;28;21036;-76
2022/10/20 03:23:25;;;;;;;5.10;4.60;;;;;;;-143.84;59.47;45113.81;5069063;28;20960;-77
2022/10/20 03:25:52;;;;;;;6.30;4.60;;;;;;;-143.84;59.58;45094.78;5069123;28;20506;-77
2022/10/20 03:28:19;;;;;;;7.83;4.63;;;;;;;-143.84;59.53;45108.09;5069064;28;20444;-76
2022/10/20 03:30:46;;;;;;;5.90;4.80;;;;;;;-143.84;59.73;45104.28;5069130;28;20907;-77
2022/10/20 03:33:13;;;;;;;6.17;5.00;;;;;;;-143.84;59.77;45087.16;5069013;28;20474;-77
2022/10/20 03:35:41;;;;;;;6.37;5.00;;;;;;;-143.84;60.18;45113.81;5068595;28;20435;-77
2022/10/20 03:38:09;;;;;;;6.60;5.10;;;;;;;-143.84;60.47;45104.28;5068875;28;20496;-76
2022/10/20 03:40:37;;;;;;;11.10;5.40;;;;;;;-143.84;60.66;45090.97;5068663;28;20872;-77
2022/10/20 03:43:04;;;;;;;6.80;5.40;;;;;;;-143.84;60.89;45098.56;5069154;28;20432;-77
2022/10/20 03:45:31;;;;;;;6.57;5.17;;;;;;;-143.84;61.19;45102.38;5068856;28;20872;-77
2022/10/20 03:47:58;;;;;;;7.33;5.30;;;;;;;-143.84;61.95;45138.56;5080640;28;20887;-76
2022/10/20 03:50:25;;;;;;;6.30;5.70;;;;;;;-143.84;61.85;45087.16;5089544;28;20443;-77
2022/10/20 03:52:52;;;;;;;9.10;6.00;;;;;;;-143.84;61.95;45104.28;5088724;28;20508;-77
2022/10/20 03:55:21;;;;;;;11.63;5.73;;;;;;;-143.84;62.56;45102.38;5088988;28;20442;-75
2022/10/20 03:57:48;;;;;;;12.83;5.63;;;;;;;-143.84;62.83;45108.09;5089111;28;20429;-78
2022/10/20 04:00:15;;;;;;;10.50;6.00;;;;;;;-143.84;62.86;45094.78;5089505;28;20550;-76
2022/10/20 04:02:44;;;;;;;7.77;5.87;;;;;;;-143.84;63.18;45090.97;5088833;28;20446;-78
2022/10/20 04:05:14;;;;;;;4.97;4.50;;;;;;;-143.84;63.42;45085.25;5086295;28;20427;-76
2022/10/20 04:07:42;;;;;;;12.73;5.70;;;;;;;-143.84;63.32;45100.47;5068128;28;21320;-77
2022/10/20 04:10:10;;;;;;;6.77;5.40;;;;;;;-143.84;63.46;45108.09;5072496;28;20959;-76
2022/10/20 04:12:39;;;;;;;7.30;5.23;;;;;;;-143.84;63.65;45094.78;5068457;28;20431;-77
2022/10/20 04:15:08;;;;;;;10.03;5.57;;;;;;;-143.84;63.34;45113.81;5068597;28;20929;-77
2022/10/20 04:17:36;;;;;;;12.57;5.43;;;;;;;-143.84;63.17;45098.56;5068358;28;20510;-79
2022/10/20 04:20:04;;;;;;;8.33;5.23;;;;;;;-143.84;62.66;45089.06;5069857;28;20562;-75
2022/10/20 04:22:31;;;;;;;6.20;4.27;;;;;;;-143.84;62.80;45102.38;5077676;28;20444;-76
2022/10/20 04:24:58;;;;;;;12.10;4.60;;;;;;;-143.84;62.41;45096.66;5088609;28;20470;-76
2022/10/20 04:27:25;;;;;;;6.73;5.10;;;;;;;-143.84;62.06;45108.09;5089056;28;20464;-75
2022/10/20 04:29:54;;;;;;;5.70;4.93;;;;;;;-143.84;62.22;45079.53;5088924;28;20466;-75
2022/10/20 04:32:22;;;;;;;10.63;5.40;;;;;;;-143.84;62.88;45121.44;5086241;28;20432;-76
2022/10/20 04:34:50;;;;;;;12.30;5.97;;;;;;;-143.84;63.06;45102.38;5068781;28;20519;-74
2022/10/20 04:37:17;;;;;;;6.17;5.00;;;;;;;-143.84;63.34;45119.53;5050288;28;20444;-76
2022/10/20 04:39:44;;;;;;;10.20;5.20;;;;;;;-143.84;63.60;45115.72;5068120;28;21052;-76
2022/10/20 04:42:14;;;;;;;12.00;5.77;;;;;;;-143.84;63.81;45096.66;5068170;28;20436;-75
2022/10/20 04:44:41;;;;;;;12.00;5.60;;;;;;;-143.84;63.74;45113.81;5068132;28;20456;-76
2022/10/20 04:47:10;;;;;;;5.03;4.60;;;;;;;-143.84;64.16;45121.44;5070194;28;20506;-76
2022/10/20 04:49:37;;;;;;;5.83;4.83;;;;;;;-143.84;63.84;45110.00;5071518;28;20472;-76
2022/10/20 04:52:04;;;;;;;8.33;4.30;;;;;;;-143.84;63.11;45096.66;5071886;28;20454;-76
2022/10/20 04:54:31;;;;;;;7.03;4.13;;;;;;;-143.84;61.97;45125.22;5079535;28;20445;-76
2022/10/20 04:56:59;;;;;;;6.73;4.43;;;;;;;-143.84;61.34;45087.16;5071687;28;20515;-76
2022/10/20 04:59:26;;;;;;;10.20;4.10;;;;;;;-143.84;60.89;45117.63;5071401;28;20502;-76
2022/10/20 05:01:53;;;;;;;7.00;3.90;;;;;;;-143.84;60.64;45127.13;5071517;28;20487;-76
2022/10/20 05:04:21;;;;;;;10.53;4.03;;;;;;;-143.84;60.32;45111.91;5071749;28;20487;-75
2022/10/20 05:06:49;;;;;;;4.97;3.40;;;;;;;-143.84;60.14;45108.09;5071155;28;21261;-76
2022/10/20 05:09:16;;;;;;;9.40;4.10;;;;;;;-143.84;59.76;45125.22;5071146;28;20874;-76
2022/10/20 05:11:44;;;;;;;5.97;3.50;;;;;;;-143.84;59.34;45121.44;5072440;28;20439;-73
2022/10/20 05:14:11;;;;;;;4.60;3.60;;;;;;;-143.84;58.93;45113.81;5073381;28;20440;-73
2022/10/20 05:16:38;;;;;;;3.53;3.23;;;;;;;-143.84;58.71;45104.28;5073749;28;20428;-73
2022/10/20 05:19:05;;;;;;;4.30;3.77;;;;;;;-143.84;57.91;45110.00;5073345;28;20440;-73
2022/10/20 05:21:35;;;;;;;6.17;2.90;;;;;;;-143.84;58.04;45100.47;5073178;28;20503;-72
2022/10/20 05:24:04;;;;;;;9.73;3.47;;;;;;;-143.84;57.45;45125.22;5076098;28;20450;-72
2022/10/20 05:26:33;;;;;;;4.00;2.93;;;;;;;-143.84;57.25;45119.53;5093597;28;20439;-73
2022/10/20 05:29:01;;;;;;;2.53;2.43;;;;;;;-143.84;56.88;45089.06;5093625;28;20444;-72
2022/10/20 05:31:28;;;;;;;4.30;3.50;;;;;;;-143.84;55.63;45111.91;5092964;28;20523;-72
2022/10/20 05:33:57;;;;;;;6.37;2.80;;;;;;;-143.84;54.83;45087.16;5093069;28;20445;-73
2022/10/20 05:36:26;;;;;;;5.20;3.27;;;;;;;-143.84;54.92;45102.38;5093320;28;21051;-73
2022/10/20 05:38:55;;;;;;;6.83;2.40;;;;;;;-143.84;53.99;45102.38;5093580;28;20970;-73
2022/10/20 05:41:25;;;;;;;6.80;3.00;;;;;;;-143.84;53.78;45098.56;5093022;28;20483;-73
2022/10/20 05:43:56;;;;;;;9.10;2.50;;;;;;;-143.84;51.14;45090.97;5093256;28;20454;-74
2022/10/20 05:46:24;;;;;;;5.50;2.00;;;;;;;-143.84;51.82;45104.28;5087460;28;20878;-74
2022/10/20 05:48:53;;;;;;;4.33;2.73;;;;;;;-143.84;50.93;45094.78;5072288;28;20507;-74
2022/10/20 05:51:23;;;;;;;2.70;2.50;;;;;;;-143.84;49.31;45115.72;5072919;28;20874;-73
2022/10/20 05:53:51;;;;;;;3.00;1.93;;;;;;;-143.84;49.08;45090.97;5072467;28;20438;-74
2022/10/20 05:56:21;;;;;;;3.03;1.50;;;;;;;-143.84;48.76;45102.38;5072469;28;20444;-73
2022/10/20 05:58:48;;;;;;;3.10;2.27;;;;;;;-143.84;47.66;45098.56;5072658;28;20445;-74
2022/10/20 06:01:19;;;;;;;1.30;1.20;;;;;;;-143.84;47.96;45117.63;5072355;28;20480;-73
2022/10/20 06:03:50;;;;;;;4.13;1.70;;;;;;;-143.84;47.38;45098.56;5072079;28;20524;-73
2022/10/20 06:06:18;;;;;;;4.47;1.80;;;;;;;-143.84;47.37;45111.91;5072019;28;20522;-73
2022/10/20 06:08:45;;;;;;;6.60;1.27;;;;;;;-143.84;47.56;45127.13;5071836;28;20494;-73
2022/10/20 06:11:13;;;;;;;4.30;1.60;;;;;;;-143.84;47.89;45104.28;5072513;28;20472;-73
2022/10/20 06:13:42;;;;;;;6.83;2.60;;;;;;;-143.84;47.49;45075.72;5071975;28;20479;-73
2022/10/20 06:16:12;;;;;;;2.57;1.70;;;;;;;-143.84;48.11;45090.97;5076145;28;20447;-73
2022/10/20 06:18:41;;;;;;;3.00;1.57;;;;;;;-143.84;47.65;45104.28;5079096;28;20452;-73
2022/10/20 06:21:11;;;;;;;3.10;1.77;;;;;;;-143.84;47.78;45113.81;5071045;28;20476;-73
2022/10/20 06:23:38;;;;;;;4.37;1.90;;;;;;;-143.84;48.14;45102.38;5070930;28;20444;-73
2022/10/20 06:26:08;;;;;;;2.90;1.80;;;;;;;-143.84;48.60;45106.19;5070009;28;20481;-74
2022/10/20 06:28:36;;;;;;;5.23;1.80;;;;;;;-143.84;48.57;45104.28;5070891;28;20436;-73
2022/10/20 06:31:13;;;;;;;12.63;1.87;;;;;;;-143.84;48.67;45129.03;5071925;28;20870;-74
2022/10/20 06:33:40;;;;;;;1.90;1.80;;;;;;;-143.84;48.61;45089.06;5082404;28;20497;-73
2022/10/20 06:36:08;;;;;;;2.27;1.90;;;;;;;-143.84;48.51;45106.19;5092030;28;20443;-74
2022/10/20 06:38:35;;;;;;;3.87;1.70;;;;;;;-143.84;48.74;45115.72;5081011;28;20457;-74
2022/10/20 06:41:03;;;;;;;6.60;1.70;;;;;;;-143.84;48.35;45098.56;5071697;28;20480;-73
2022/10/20 06:43:30;;;;;;;2.53;1.70;;;;;;;-143.84;48.14;45110.00;5071465;28;20505;-73
2022/10/20 06:45:58;;;;;;;2.53;1.70;;;;;;;-143.84;47.78;45104.28;5071713;28;20510;-73
2022/10/20 06:48:27;;;;;;;3.10;1.60;;;;;;;-143.84;48.20;45121.44;5071255;28;20503;-74
2022/10/20 06:50:57;;;;;;;6.03;2.20;;;;;;;-143.84;47.81;45102.38;5071932;28;20453;-73
2022/10/20 06:53:24;;;;;;;11.93;2.80;;;;;;;-143.84;48.28;45110.00;5071537;28;20946;-74
2022/10/20 06:55:56;;;;;;;3.97;2.43;;;;;;;-143.84;46.93;45115.72;5071300;28;20443;-74
2022/10/20 06:58:24;;;;;;;3.43;1.40;;;;;;;-143.84;47.46;45083.34;5071587;28;20447;-73
2022/10/20 07:00:59;;;;;;;5.90;2.10;;;;;;;-143.84;47.33;45102.38;5071656;28;21057;-73
2022/10/20 07:03:28;;;;;;;7.10;2.47;;;;;;;-143.84;47.43;45102.38;5071423;28;20450;-73
2022/10/20 07:05:56;;;;;;;12.73;1.90;;;;;;;-143.84;47.26;45090.97;5077344;28;20506;-73
2022/10/20 07:08:24;;;;;;;7.50;2.00;;;;;;;-143.84;47.43;45089.06;5082734;28;20550;-73
2022/10/20 07:10:59;;;;;;;13.20;2.13;;;;;;;-143.84;47.18;45098.56;5075316;28;20483;-73
2022/10/20 07:13:27;;;;;;;2.83;2.20;;;;;;;-143.84;47.64;45111.91;5076930;28;20534;-74
2022/10/20 07:15:54;;;;;;;3.80;2.67;;;;;;;-143.84;47.03;45129.03;5070948;28;20525;-72
2022/10/20 07:18:23;;;;;;;4.23;2.07;;;;;;;-143.84;47.38;45111.91;5076599;28;20467;-73
2022/10/20 07:20:52;;;;;;;3.00;2.10;;;;;;;-143.84;47.49;45087.16;5074577;28;20570;-73
2022/10/20 07:23:19;;;;;;;3.10;1.90;;;;;;;-143.84;47.71;45098.56;5075888;28;20461;-73
2022/10/20 07:25:46;;;;;;;5.40;2.00;;;;;;;-143.84;47.86;45092.88;5072342;28;20997;-73
2022/10/20 07:28:13;;;;;;;6.40;1.43;;;;;;;-143.84;47.90;45096.66;5073524;28;20442;-73
2022/10/20 07:30:40;;;;;;;7.13;2.50;;;;;;;-143.84;48.08;45092.88;5073429;28;20473;-73
2022/10/20 07:33:08;;;;;;;1.97;1.77;;;;;;;-143.84;48.19;45104.28;5070532;28;20514;-73
2022/10/20 07:35:36;;;;;;;9.27;1.77;;;;;;;-143.84;48.10;45085.25;5074480;28;20505;-73
2022/10/20 07:38:04;;;;;;;2.20;2.00;;;;;;;-143.84;47.94;45106.19;5072286;28;20452;-73
2022/10/20 07:40:31;;;;;;;1.97;1.67;;;;;;;-143.84;47.92;45129.03;5078456;28;20534;-73
2022/10/20 07:42:58;;;;;;;1.80;1.70;;;;;;;-143.84;49.45;45113.81;5076565;28;21192;-73
2022/10/20 07:45:26;;;;;;;2.23;1.80;;;;;;;-143.84;51.56;45098.56;5078685;28;20511;-73
2022/10/20 07:47:53;;;;;;;3.70;1.50;;;;;;;-143.84;51.44;45111.91;5071073;28;20586;-73
2022/10/20 07:50:20;;;;;;;1.63;1.53;;;;;;;-143.84;51.08;45117.63;5071716;28;20523;-73
2022/10/20 07:52:51;;;;;;;1.70;1.60;;;;;;;-143.84;51.16;45100.47;5072277;28;20502;-73
2022/10/20 07:55:20;;;;;;;3.90;2.43;;;;;;;-143.84;52.51;45089.06;5075575;28;20808;-73
2022/10/20 07:57:48;;;;;;;5.40;1.77;;;;;;;-143.84;51.84;45113.81;5075350;28;20451;-73
2022/10/20 08:00:16;;;;;;;2.10;1.90;;;;;;;-143.84;51.04;45130.94;5073969;28;20506;-73
2022/10/20 08:02:44;;;;;;;1.80;1.37;;;;;;;-143.84;51.27;45111.91;5073170;28;20443;-73
2022/10/20 08:05:11;;;;;;;3.13;1.50;;;;;;;-143.84;50.44;45117.63;5077253;28;20460;-73
2022/10/20 08:07:39;;;;;;;3.43;2.07;;;;;;;-143.84;50.16;45090.97;5075469;28;20812;-73
2022/10/20 08:10:07;;;;;;;4.57;1.90;;;;;;;-143.84;50.47;45108.09;5075048;28;20819;-73
2022/10/20 08:12:37;;;;;;;2.53;1.97;;;;;;;-143.84;49.96;45127.13;5074411;28;20981;-73
2022/10/20 08:15:04;;;;;;;4.27;1.70;;;;;;;-143.84;49.92;45113.81;5074932;28;21042;-73
2022/10/20 08:17:32;;;;;;;4.50;2.07;;;;;;;-143.84;48.78;45098.56;5075272;28;20460;-74
2022/10/20 08:20:01;;;;;;;1.47;1.37;;;;;;;-143.84;48.14;45098.56;5071485;28;20447;-72
2022/10/20 08:22:28;;;;;;;3.37;2.40;;;;;;;-143.84;47.93;45100.47;5072141;28;20976;-73
2022/10/20 08:24:55;;;;;;;6.50;2.07;;;;;;;-143.84;47.77;45110.00;5074012;28;21143;-74
2022/10/20 08:27:23;;;;;;;5.47;1.60;;;;;;;-143.84;46.65;45098.56;5073217;28;20446;-74
2022/10/20 08:29:51;;;;;;;3.10;1.70;;;;;;;-143.84;46.58;45085.25;5074084;28;20442;-73
2022/10/20 08:32:18;;;;;;;2.43;2.00;;;;;;;-143.84;45.08;45081.44;5073280;28;20494;-73
2022/10/20 08:34:46;;;;;;;4.70;1.70;;;;;;;-143.84;45.83;45110.00;5073993;28;20445;-73
2022/10/20 08:37:13;;;;;;;3.93;1.87;;;;;;;-143.84;44.33;45106.19;5077445;28;20539;-73
2022/10/20 08:39:40;;;;;;;3.47;2.10;;;;;;;-143.84;44.43;45104.28;5077196;28;20452;-74
2022/10/20 08:42:11;;;;;;;6.60;2.40;;;;;;;-143.84;44.09;45104.28;5075882;28;20481;-73
2022/10/20 08:44:41;;;;;;;5.33;2.00;;;;;;;-143.84;43.96;45115.72;5078436;28;20450;-73
2022/10/20 08:47:23;;;;;;;1.53;1.43;;;;;;;-143.84;44.04;45111.91;5074696;28;20806;-73
2022/10/20 08:49:51;;;;;;;1.90;1.40;;;;;;;-143.84;44.01;45096.66;5076880;28;20999;-73
2022/10/20 08:52:20;;;;;;;3.17;1.63;;;;;;;-143.84;44.71;45089.06;5083906;28;20464;-73
2022/10/20 08:54:51;;;;;;;2.30;1.40;;;;;;;-143.84;44.04;45102.38;5073495;28;20446;-73
2022/10/20 08:57:23;;;;;;;2.33;1.90;;;;;;;-143.84;44.12;45100.47;5073365;28;20517;-73
2022/10/20 08:59:52;;;;;;;3.63;1.50;;;;;;;-143.84;42.58;45083.34;5073369;28;20515;-74
2022/10/20 09:02:22;;;;;;;3.60;2.07;;;;;;;-143.84;42.76;45096.66;5073483;28;21357;-73
2022/10/20 09:04:53;;;;;;;1.43;1.33;;;;;;;-143.84;41.20;45083.34;5073302;28;20442;-73
2022/10/20 09:07:26;;;;;;;1.50;1.40;;;;;;;-143.84;41.48;45127.13;5073285;28;20451;-74
2022/10/20 09:09:58;;;;;;;3.60;1.43;;;;;;;-143.84;41.46;45073.81;5085107;28;20507;-73
2022/10/20 09:12:26;;;;;;;2.40;2.20;;;;;;;-143.84;40.66;45081.44;5073044;28;20990;-74
2022/10/20 09:14:53;;;;;;;1.97;1.57;;;;;;;-143.84;40.34;45085.25;5073318;28;20441;-73
2022/10/20 09:17:22;;;;;;;2.90;1.97;;;;;;;-143.84;41.08;45073.81;5072911;28;20440;-74
2022/10/20 09:19:55;;;;;;;6.20;1.50;;;;;;;-143.84;40.87;45073.81;5073214;28;20504;-73
2022/10/20 09:22:27;;;;;;;1.63;1.53;;;;;;;-143.84;38.82;45087.16;5072555;28;20542;-73
2022/10/20 09:24:58;;;;;;;5.20;1.93;;;;;;;-143.84;39.02;45066.22;5084260;28;20450;-73
2022/10/20 09:27:33;;;;;;;3.53;1.43;;;;;;;-143.84;39.42;45049.06;5092986;28;20446;-73
2022/10/20 09:30:14;;;;;;;4.20;1.30;;;;;;;-143.84;38.26;45090.97;5093036;28;20842;-73
2022/10/20 09:32:43;;;;;;;5.10;1.57;;;;;;;-143.84;38.44;45068.13;5092279;28;20439;-73
2022/10/20 09:35:30;;;;;;;1.97;1.10;;;;;;;-143.84;38.79;45098.56;5093253;28;20823;-73
2022/10/20 09:38:02;;;;;;;6.67;1.60;;;;;;;-143.84;38.09;45090.97;5093154;28;20486;-73
2022/10/20 09:40:30;;;;;;;7.33;1.70;;;;;;;-143.84;38.17;45071.91;5076161;28;21026;-73
2022/10/20 09:43:01;;;;;;;3.67;2.27;;;;;;;-143.84;36.39;45066.22;5072508;28;20438;-74
2022/10/20 09:45:30;;;;;;;4.20;1.27;;;;;;;-143.84;35.82;45064.31;5072657;28;20450;-73
2022/10/20 09:48:05;;;;;;;4.53;1.43;;;;;;;-143.84;35.82;45094.78;5072325;28;20515;-73
2022/10/20 09:50:35;;;;;;;11.60;1.80;;;;;;;-143.84;35.96;45064.31;5072662;28;20463;-74
2022/10/20 09:53:07;;;;;;;4.53;1.67;;;;;;;-143.84;36.09;45077.63;5072483;28;20433;-74
2022/10/20 09:55:40;;;;;;;6.60;1.50;;;;;;;-143.84;35.96;45083.34;5072263;28;20466;-74
2022/10/20 09:58:18;;;;;;;4.37;1.50;;;;;;;-143.84;36.46;45083.34;5072422;28;20548;-74
2022/10/20 10:00:55;;;;;;;2.87;1.30;;;;;;;-143.84;35.78;45075.72;5072455;28;20449;-74
2022/10/20 10:03:25;;;;;;;11.90;1.47;;;;;;;-143.84;35.67;45071.91;5072505;28;20492;-74
2022/10/20 10:05:53;;;;;;;6.40;2.00;;;;;;;-143.84;35.71;45068.13;5071330;28;20443;-75
2022/10/20 10:08:22;;;;;;;4.87;1.40;;;;;;;-143.84;35.51;45045.25;5071162;28;20958;-75
2022/10/20 10:11:00;;;;;;;4.43;2.00;;;;;;;-143.84;34.56;45060.50;5071291;28;20508;-75
2022/10/20 10:13:30;;;;;;;4.43;1.90;;;;;;;-143.84;35.31;45041.44;5071361;28;20851;-75
2022/10/20 10:16:03;;;;;;;3.87;1.70;;;;;;;-143.84;34.87;45071.91;5070842;28;20471;-75
2022/10/20 10:18:32;;;;;;;4.73;1.27;;;;;;;-143.84;34.63;45056.69;5070806;28;20445;-75
2022/10/20 10:21:02;;;;;;;5.13;1.40;;;;;;;-143.84;34.63;45075.72;5070438;28;20475;-75
2022/10/20 10:23:32;;;;;;;5.60;1.67;;;;;;;-143.84;34.56;45062.41;5070682;28;20531;-75
2022/10/20 10:26:00;;;;;;;3.97;1.40;;;;;;;-143.84;35.14;45075.72;5070276;28;20542;-75
2022/10/20 10:28:36;;;;;;;5.00;1.20;;;;;;;-143.84;35.10;45060.50;5070670;28;20852;-75
2022/10/20 10:31:23;;;;;;;9.40;1.67;;;;;;;-143.84;34.99;45092.88;5070014;28;20453;-75
2022/10/20 10:33:57;;;;;;;5.60;1.53;;;;;;;-143.84;34.36;45047.16;5070022;28;20456;-75
2022/10/20 10:36:31;;;;;;;9.50;1.80;;;;;;;-143.84;36.33;45056.69;5070240;28;20458;-75
2022/10/20 10:38:59;;;;;;;7.70;2.60;;;;;;;-143.84;33.70;45075.72;5070040;28;20440;-75
2022/10/20 10:41:50;;;;;;;13.17;1.80;;;;;;;-143.84;34.28;45052.88;5052189;28;20472;-75
2022/10/20 10:44:30;;;;;;;1.83;1.67;;;;;;;-143.84;34.28;45058.59;5069121;28;20445;-75
2022/10/20 10:47:05;;;;;;;17.77;2.27;;;;;;;-143.84;34.08;45064.31;5069956;28;20847;-75
2022/10/20 10:49:53;;;;;;;3.00;1.77;;;;;;;-143.84;33.80;45043.34;5069418;28;20468;-75
2022/10/20 10:52:34;;;;;;;14.23;2.23;;;;;;;-143.84;34.21;45060.50;5070141;28;20869;-75
2022/10/20 10:55:14;;;;;;;8.33;2.17;;;;;;;-143.84;33.87;45022.41;5070117;28;21136;-75
2022/10/20 10:57:55;;;;;;;14.07;2.70;;;;;;;-143.84;34.18;45037.66;5069563;28;20453;-74
2022/10/20 11:00:38;;;;;;;10.27;2.07;;;;;;;-143.84;34.05;45058.59;5069301;28;20440;-75
2022/10/20 11:03:25;;;;;;;6.17;3.13;;;;;;;-143.84;33.50;45066.22;5073738;28;21361;-74
2022/10/20 11:06:03;;;;;;;5.50;2.90;;;;;;;-143.84;33.10;45033.84;5090301;28;20434;-74
2022/10/20 11:08:40;;;;;;;8.23;3.37;;;;;;;-143.84;34.18;45047.16;5089474;28;20458;-75
2022/10/20 11:11:19;;;;;;;88.90;11.73;;;;;;;-143.84;34.59;45047.16;5089717;28;20450;-74
2022/10/20 11:13:56;;;;;;;13.27;4.07;;;;;;;-143.84;33.43;45049.06;5089981;28;20439;-75
2022/10/20 11:16:34;;;;;;;4.03;3.73;;;;;;;-143.84;34.13;45056.69;5084875;28;21205;-75
2022/10/20 11:19:16;;;;;;;4.90;3.60;;;;;;;-143.84;34.05;45050.97;5072779;28;20464;-75
2022/10/20 11:21:58;;;;;;;5.33;3.27;;;;;;;-143.84;33.17;45016.69;5074524;28;21079;-75
2022/10/20 11:24:43;;;;;;;5.43;2.90;;;;;;;-143.84;33.46;45041.44;5071637;28;20495;-74
2022/10/20 11:27:13;;;;;;;17.20;3.27;;;;;;;-143.84;35.26;45054.78;5075658;28;21036;-75
2022/10/20 11:29:44;;;;;;;8.33;3.17;;;;;;;-143.84;34.26;45052.88;5069634;28;21277;-75